»·PEaware :: DAL740 KSLC-KSEA

DAL740 :: KSLC-KSEA

FLIGHT INFORMATION

Flight Status: Arrived
Operator:
Delta Air Lines
More flights by this operator :: More flights under this callsign
Pilot: Joe P. (13940)
Aircraft: BOEING 737-700
(B737)
More flights by this aircraft type
Origin: KSLC Salt Lake City Intl
United States
Destination: KSEA Seattle-Tacoma Intl
United States
More flights between these airports :: More routes between these airports
Route: CGULL1 TWF BOI J163 BKE PDT CHINS3
File this flight plan on PilotEdge
Remarks: KPDX -PBN / A1B1C1D1L1O1S1 NAV / RNVD1E2A1 DOF / 180902 REG / N389DA EET / KZSE0055 RVR / 200 PER / C
Altitude:
(Current/Filed)
380ft
Speed:
(Current/Filed)
450kts
Departed: 02-Sep-18 03:46 PM
Arrived: 02-Sep-18 05:24 PM
Distance/Time
Traveled:
597nm/1:38
Distance/Time
To Go:
Arrived

Flight Plot

Page will automatically refresh every two minutes.

Flight plan parsing failed; only flown route is shown


Map Options




Map Legend


Flown Route
Filed Route
Departure Airport
Arrival Airport
Navaid (VOR, NDB)
Fix

Horizontal Profiles

Position Reports

Time Latitude Longitude Heading Altitude Ground
Speed
02-Sep-18 14:50 40.788528 -111.980747 282 4235ft 0kts
02-Sep-18 14:51 40.788528 -111.980747 282 4235ft 0kts
02-Sep-18 14:52 40.788528 -111.980747 282 4235ft 0kts
02-Sep-18 14:53 40.788528 -111.980747 282 4235ft 0kts
02-Sep-18 14:54 40.788528 -111.980747 282 4235ft 0kts
02-Sep-18 14:55 40.788528 -111.980747 282 4235ft 0kts
02-Sep-18 14:56 40.788528 -111.980747 282 4235ft 0kts
02-Sep-18 14:57 40.788528 -111.980747 282 4235ft 0kts
02-Sep-18 14:58 40.788528 -111.980747 282 4235ft 0kts
02-Sep-18 14:59 40.788528 -111.980747 282 4235ft 0kts
02-Sep-18 15:00 40.788528 -111.980747 282 4235ft 0kts
02-Sep-18 15:01 40.788528 -111.980747 282 4235ft 0kts
02-Sep-18 15:02 40.788528 -111.980747 282 4235ft 0kts
02-Sep-18 15:03 40.788528 -111.980747 282 4235ft 0kts
02-Sep-18 15:04 40.788528 -111.980747 282 4235ft 0kts
02-Sep-18 15:05 40.788528 -111.980747 282 4235ft 0kts
02-Sep-18 15:06 40.788528 -111.980747 282 4235ft 0kts
02-Sep-18 15:07 40.788528 -111.980747 282 4235ft 0kts
02-Sep-18 15:08 40.788528 -111.980747 282 4235ft 0kts
02-Sep-18 15:09 40.788528 -111.980747 282 4235ft 0kts
02-Sep-18 15:10 40.788528 -111.980747 282 4235ft 0kts
02-Sep-18 15:11 40.788528 -111.980747 282 4235ft 0kts
02-Sep-18 15:12 40.788528 -111.980747 282 4235ft 0kts
02-Sep-18 15:13 40.788528 -111.980747 282 4235ft 0kts
02-Sep-18 15:14 40.788528 -111.980747 282 4235ft 0kts
02-Sep-18 15:15 40.788528 -111.980747 282 4235ft 0kts
02-Sep-18 15:16 40.788528 -111.980747 282 4235ft 0kts
02-Sep-18 15:17 40.788528 -111.980747 282 4235ft 0kts
02-Sep-18 15:18 40.788528 -111.980747 282 4235ft 0kts
02-Sep-18 15:19 40.788528 -111.980747 282 4235ft 0kts
02-Sep-18 15:20 40.788528 -111.980747 282 4235ft 0kts
02-Sep-18 15:21 40.788528 -111.980747 282 4235ft 0kts
02-Sep-18 15:22 40.788528 -111.980747 282 4235ft 0kts
02-Sep-18 15:23 40.788528 -111.980747 282 4235ft 0kts
02-Sep-18 15:24 40.788528 -111.980747 282 4235ft 0kts
02-Sep-18 15:25 40.788528 -111.980747 282 4235ft 0kts
02-Sep-18 15:26 40.788528 -111.980747 282 4235ft 0kts
02-Sep-18 15:27 40.788528 -111.980747 282 4235ft 0kts
02-Sep-18 15:28 40.788528 -111.980747 282 4235ft 0kts
02-Sep-18 15:29 40.788528 -111.980747 282 4235ft 0kts
02-Sep-18 15:30 40.788528 -111.980747 282 4235ft 0kts
02-Sep-18 15:31 40.788528 -111.980747 282 4235ft 0kts
02-Sep-18 15:32 40.788528 -111.980747 282 4235ft 0kts
02-Sep-18 15:33 40.788528 -111.980747 282 4235ft 0kts
02-Sep-18 15:34 40.788528 -111.980747 282 4235ft 0kts
02-Sep-18 15:35 40.788491 -111.980532 282 4235ft 2kts
02-Sep-18 15:37 40.788351 -111.979698 282 4235ft 2kts
02-Sep-18 15:38 40.788333 -111.979591 282 4235ft 0kts
02-Sep-18 15:39 40.788333 -111.979592 282 4235ft 0kts
02-Sep-18 15:40 40.788333 -111.979594 282 4235ft 0kts
02-Sep-18 15:41 40.789506 -111.979632 46 4235ft 10kts
02-Sep-18 15:42 40.787443 -111.976833 174 4235ft 15kts
02-Sep-18 15:43 40.783898 -111.976443 174 4235ft 7kts
02-Sep-18 15:44 40.780058 -111.975896 166 4235ft 18kts
02-Sep-18 15:45 40.774808 -111.974948 174 4235ft 13kts
02-Sep-18 15:46 40.774596 -111.974869 145 4235ft 0kts
02-Sep-18 15:47 40.775060 -111.973128 355 4235ft 0kts
02-Sep-18 15:48 40.782448 -111.974019 354 4235ft 120kts
02-Sep-18 15:49 40.830622 -111.987339 329 6262ft 220kts
02-Sep-18 15:50 40.889286 -112.028143 332 9489ft 240kts
02-Sep-18 15:51 40.941166 -112.090359 296 11667ft 292kts
02-Sep-18 15:52 40.983001 -112.198205 296 13285ft 361kts
02-Sep-18 15:53 41.029531 -112.319957 296 16090ft 378kts
02-Sep-18 15:54 41.088181 -112.437649 319 18594ft 394kts
02-Sep-18 15:55 41.180535 -112.519816 324 20906ft 407kts
02-Sep-18 15:56 41.271446 -112.613953 319 22927ft 420kts
02-Sep-18 15:57 41.352560 -112.728470 312 24711ft 432kts
02-Sep-18 15:58 41.433724 -112.849373 311 26313ft 443kts
02-Sep-18 15:59 41.515534 -112.975092 311 27784ft 453kts
02-Sep-18 16:00 41.599013 -113.103921 311 29097ft 463kts
02-Sep-18 16:01 41.684176 -113.234990 311 30407ft 468kts
02-Sep-18 16:02 41.768855 -113.366020 310 32185ft 461kts
02-Sep-18 16:03 41.852242 -113.495844 310 33717ft 457kts
02-Sep-18 16:04 41.934658 -113.624769 310 35235ft 451kts
02-Sep-18 16:05 42.016097 -113.752239 310 36637ft 446kts
02-Sep-18 16:06 42.095865 -113.878363 309 37890ft 441kts
02-Sep-18 16:07 42.175686 -114.005049 310 38094ft 442kts
02-Sep-18 16:08 42.254815 -114.130469 309 38085ft 440kts
02-Sep-18 16:09 42.334249 -114.256081 309 38086ft 439kts
02-Sep-18 16:10 42.413358 -114.382603 309 38089ft 439kts
02-Sep-18 16:11 42.492058 -114.508608 310 38090ft 438kts
02-Sep-18 16:12 42.572391 -114.632770 310 38086ft 438kts
02-Sep-18 16:13 42.652466 -114.757435 309 38082ft 437kts
02-Sep-18 16:14 42.732218 -114.881729 310 38078ft 436kts
02-Sep-18 16:15 42.811993 -115.006078 309 38074ft 436kts
02-Sep-18 16:16 42.891607 -115.131090 309 38066ft 435kts
02-Sep-18 16:16 42.957639 -115.235279 309 38058ft 436kts
02-Sep-18 16:18 43.049994 -115.381676 309 38043ft 436kts
02-Sep-18 16:19 43.129030 -115.507564 309 38033ft 435kts
02-Sep-18 16:20 43.207615 -115.633282 308 38029ft 435kts
02-Sep-18 16:20 43.273177 -115.738586 308 38029ft 434kts
02-Sep-18 16:21 43.351454 -115.864674 308 38029ft 433kts
02-Sep-18 16:22 43.429835 -115.991243 307 38027ft 438kts
02-Sep-18 16:23 43.508647 -116.119865 307 38022ft 439kts
02-Sep-18 16:24 43.593032 -116.241807 315 38020ft 442kts
02-Sep-18 16:25 43.685297 -116.354326 315 38016ft 442kts
02-Sep-18 16:26 43.777035 -116.467150 315 38015ft 442kts
02-Sep-18 16:27 43.869157 -116.580288 315 38012ft 443kts
02-Sep-18 16:28 43.961369 -116.694095 315 38014ft 443kts
02-Sep-18 16:29 44.053131 -116.808054 314 38013ft 441kts
02-Sep-18 16:30 44.144378 -116.921945 314 38013ft 441kts
02-Sep-18 16:31 44.235575 -117.036295 314 38018ft 441kts
02-Sep-18 16:32 44.326829 -117.151220 314 38030ft 441kts
02-Sep-18 16:33 44.417626 -117.266073 314 38044ft 441kts
02-Sep-18 16:34 44.508522 -117.381564 314 38060ft 441kts
02-Sep-18 16:35 44.599207 -117.497293 314 38071ft 441kts
02-Sep-18 16:36 44.690270 -117.613609 314 38077ft 441kts
02-Sep-18 16:37 44.780539 -117.730121 313 38078ft 440kts
02-Sep-18 16:38 44.870767 -117.846642 313 38079ft 440kts
02-Sep-18 16:39 44.960652 -117.963432 313 38075ft 439kts
02-Sep-18 16:40 45.050361 -118.080566 313 38070ft 439kts
02-Sep-18 16:41 45.140363 -118.197915 313 38066ft 438kts
02-Sep-18 16:42 45.229759 -118.314897 313 38075ft 437kts
02-Sep-18 16:43 45.318830 -118.432241 313 38093ft 437kts
02-Sep-18 16:44 45.407966 -118.550273 313 38108ft 437kts
02-Sep-18 16:45 45.496885 -118.668184 313 38098ft 436kts
02-Sep-18 16:46 45.585503 -118.786652 313 38065ft 436kts
02-Sep-18 16:47 45.673780 -118.905462 313 38035ft 436kts
02-Sep-18 16:48 45.755502 -119.032990 306 38022ft 433kts
02-Sep-18 16:49 45.832766 -119.165535 306 38004ft 433kts
02-Sep-18 16:50 45.910150 -119.297816 306 37998ft 430kts
02-Sep-18 16:51 45.988066 -119.430067 307 37993ft 434kts
02-Sep-18 16:52 46.065224 -119.561737 306 37981ft 429kts
02-Sep-18 16:53 46.142044 -119.694524 306 37604ft 430kts
02-Sep-18 16:54 46.218433 -119.826824 306 34934ft 431kts
02-Sep-18 16:55 46.295203 -119.960577 306 31959ft 435kts
02-Sep-18 16:56 46.370982 -120.093131 306 29744ft 420kts
02-Sep-18 16:57 46.444310 -120.221337 306 27663ft 406kts
02-Sep-18 16:58 46.515119 -120.346692 305 25619ft 395kts
02-Sep-18 16:59 46.583010 -120.468944 302 24076ft 379kts
02-Sep-18 17:00 46.642618 -120.594770 301 22302ft 377kts
02-Sep-18 17:01 46.701833 -120.719424 301 20903ft 369kts
02-Sep-18 17:02 46.759315 -120.841246 301 19548ft 360kts
02-Sep-18 17:03 46.815479 -120.960543 301 18225ft 353kts
02-Sep-18 17:04 46.870182 -121.077181 301 16837ft 344kts
02-Sep-18 17:05 46.924215 -121.191900 302 15573ft 338kts
02-Sep-18 17:06 46.976812 -121.304729 302 14347ft 332kts
02-Sep-18 17:07 47.026833 -121.412747 302 13173ft 306kts
02-Sep-18 17:08 47.071869 -121.510504 302 12095ft 276kts
02-Sep-18 17:09 47.114966 -121.603542 302 11576ft 279kts
02-Sep-18 17:10 47.158299 -121.698093 302 11080ft 280kts
02-Sep-18 17:11 47.201492 -121.792781 302 10573ft 279kts
02-Sep-18 17:12 47.239216 -121.890638 284 9840ft 279kts
02-Sep-18 17:13 47.239718 -122.001097 267 8185ft 265kts
02-Sep-18 17:14 47.234033 -122.108610 267 6183ft 260kts
02-Sep-18 17:15 47.227245 -122.213064 242 4187ft 257kts
02-Sep-18 17:16 47.171109 -122.260474 221 4012ft 222kts
02-Sep-18 17:17 47.126711 -122.307205 281 3992ft 218kts
02-Sep-18 17:18 47.178802 -122.321105 10 4040ft 222kts
02-Sep-18 17:19 47.237618 -122.310868 1 3884ft 185kts
02-Sep-18 17:20 47.282491 -122.309388 358 3104ft 148kts
02-Sep-18 17:21 47.323563 -122.308956 358 2382ft 147kts
02-Sep-18 17:22 47.364490 -122.308595 358 1678ft 144kts
02-Sep-18 17:23 47.405207 -122.308238 358 928ft 146kts
02-Sep-18 17:24 47.444056 -122.307878 0 441ft 101kts
02-Sep-18 17:25 47.449931 -122.306688 118 441ft 2kts
02-Sep-18 17:26 47.449889 -122.306601 128 441ft 0kts
02-Sep-18 17:27 47.446763 -122.306204 180 441ft 17kts
02-Sep-18 17:28 47.441829 -122.306256 179 441ft 20kts
02-Sep-18 17:29 47.440012 -122.302876 59 441ft 15kts
02-Sep-18 17:30 47.441221 -122.300933 40 441ft 1kts
02-Sep-18 17:31 47.441239 -122.300910 39 441ft 0kts
02-Sep-18 17:32 47.441239 -122.300910 39 441ft 0kts
02-Sep-18 17:33 47.441239 -122.300910 39 441ft 0kts
02-Sep-18 17:34 47.441239 -122.300910 39 441ft 0kts
02-Sep-18 17:35 47.441239 -122.300910 39 441ft 0kts
02-Sep-18 17:36 47.441239 -122.300910 39 441ft 0kts
02-Sep-18 17:37 47.441239 -122.300910 39 441ft 0kts

Navigation Log

Ident Type
Flight plan parsing failed, navigation log unavailable